Main page
METAR-TAF:

METAR-TAF

Airports :

Milan, Italy

Linate Airport

latitude: 45-26N, longitude: 009-17E, elevation: 107 m

Current weather observation

The report was made 38 minutes ago, at 20:50 UTC
Wind 6 kt from the Northeast
Temperature 5°C
Humidity 75%
Pressure 1029 hPa
Visibility 10 km or more
no clouds below 1500 m and no cumulonimbus

METAR: LIML 232050Z 05006KT CAVOK 05/01 Q1029 NOSIG

Time: 22:28 (21:28 UTC)

Forecast

The report was made 4 hours and 28 minutes ago, at 17:00 UTC
Forecast valid from 23 at 18 UTC to 24 at 18 UTC
Wind 5 kt from variable directions
Visibility: 7000 m
Becoming
from 23 at 20 UTC to 23 at 22 UTC
Visibility: 3500 m
mist
Temporary
from 24 at 00 UTC to 24 at 07 UTC
Visibility: 1200 m
patches of fog
Becoming
from 24 at 07 UTC to 24 at 10 UTC
Visibility: 7000 m

TAF: LIML 231700Z 2318/2418 VRB05KT 7000 NSC BECMG 2320/2322 3500 BR TEMPO 2400/2407 1200 BCFG BECMG 2407/2410 7000

Weather observations and forecasts of more than 4000 airports (METAR and TAF reports).

The available stations are represented by yellow and red dots on the map.

Hover mouse over dot to see the name of the station.

Then click to see weather observations and forecasts.

To change the map : click on the green buttons with a black cross to zoom in, on the green button with a dash to zoom out, or on the green arrows for adjacent maps.


METAR-TAF: